Time;durP1;ratioP1;P1;durP2;ratioP2;P2;SDS_P1;SDS_P2;PMS_P1;PMS_P2;Temp;Humidity;BMP_temperature;BMP_pressure;BME280_temperature;BME280_humidity;BME280_pressure;Samples;Min_cycle;Max_cycle;Signal;HPM_P1;HPM_P2
2023/06/02 00:01:09;;;;;;;;;6.33;6.33;;;;;19.22;47.99;101383.09;6191536;23;44966;-60
2023/06/02 00:03:37;;;;;;;;;7.33;5.33;;;;;19.07;47.71;101383.97;6192026;22;45194;-60
2023/06/02 00:06:05;;;;;;;;;8.00;6.33;;;;;19.08;48.09;101385.81;6190195;23;46958;-60
2023/06/02 00:08:31;;;;;;;;;6.33;6.33;;;;;19.08;48.17;101393.94;6191255;22;44826;-62
2023/06/02 00:10:57;;;;;;;;;7.00;7.00;;;;;19.05;48.10;101385.78;6191113;22;44857;-59
2023/06/02 00:13:22;;;;;;;;;5.67;5.67;;;;;18.97;48.27;101369.53;6190751;23;44937;-60
2023/06/02 00:15:47;;;;;;;;;7.67;7.67;;;;;19.01;48.29;101384.91;6190752;23;45358;-60
2023/06/02 00:18:13;;;;;;;;;8.00;7.00;;;;;18.92;48.36;101380.38;6191663;23;45290;-61
2023/06/02 00:20:39;;;;;;;;;7.67;6.33;;;;;18.87;48.52;101381.25;6189917;23;45001;-61
2023/06/02 00:23:08;;;;;;;;;6.67;6.33;;;;;18.80;48.60;101380.28;6191504;22;45205;-61
2023/06/02 00:25:33;;;;;;;;;7.00;5.67;;;;;18.77;48.82;101383.00;6190374;23;45103;-61
2023/06/02 00:27:59;;;;;;;;;11.67;8.67;;;;;18.73;48.78;101383.91;6191104;23;45292;-61
2023/06/02 00:30:24;;;;;;;;;7.25;7.25;;;;;18.68;48.60;101389.28;6190728;22;45084;-60
2023/06/02 00:32:49;;;;;;;;;11.00;8.25;;;;;18.68;48.99;101388.41;6188313;22;45187;-60
2023/06/02 00:35:15;;;;;;;;;9.00;7.25;;;;;18.64;48.81;101390.16;6188442;23;45002;-59
2023/06/02 00:37:40;;;;;;;;;11.25;8.50;;;;;18.65;48.83;101399.22;6190262;22;45289;-61
2023/06/02 00:40:06;;;;;;;;;8.25;8.25;;;;;18.53;48.89;101387.44;6191227;23;45680;-62
2023/06/02 00:42:32;;;;;;;;;7.33;7.00;;;;;18.55;48.96;101396.44;6189412;22;44950;-59
2023/06/02 00:44:57;;;;;;;;;13.00;9.25;;;;;18.47;49.02;101389.22;6212116;22;45813;-62
2023/06/02 00:47:23;;;;;;;;;10.50;9.50;;;;;18.46;49.42;101393.69;6188192;22;44909;-62
2023/06/02 00:49:48;;;;;;;;;10.50;9.75;;;;;18.22;49.36;101360.25;6188708;22;44868;-63
2023/06/02 00:52:17;;;;;;;;;10.00;8.75;;;;;18.40;49.30;101391.88;6187743;23;44869;-60
2023/06/02 00:54:46;;;;;;;;;11.75;9.75;;;;;18.31;49.15;101377.41;6187903;22;45693;-58
2023/06/02 00:57:11;;;;;;;;;13.25;10.00;;;;;18.29;49.56;101392.72;6186960;23;45228;-60
2023/06/02 00:59:37;;;;;;;;;11.25;10.00;;;;;18.16;49.87;101378.25;6188341;22;45183;-59
2023/06/02 01:02:03;;;;;;;;;12.00;11.00;;;;;18.22;49.96;101392.69;6189578;23;45057;-62
2023/06/02 01:04:32;;;;;;;;;8.50;8.50;;;;;18.17;49.59;101389.06;6189727;23;45047;-62
2023/06/02 01:07:02;;;;;;;;;12.00;10.75;;;;;18.20;49.59;101401.72;6190039;22;45107;-61
2023/06/02 01:09:29;;;;;;;;;9.25;8.75;;;;;18.21;49.94;101406.22;6189152;22;44975;-60
2023/06/02 01:11:55;;;;;;;;;9.25;7.75;;;;;18.23;49.59;101399.00;6190860;22;45143;-61
2023/06/02 01:14:20;;;;;;;;;9.25;8.75;;;;;18.24;49.50;101393.59;6190372;23;45767;-60
2023/06/02 01:16:49;;;;;;;;;10.75;10.25;;;;;18.21;49.84;101389.97;6190163;23;45074;-59
2023/06/02 01:19:14;;;;;;;;;18.25;11.00;;;;;18.11;49.58;101380.91;6190688;22;45040;-59
2023/06/02 01:21:47;;;;;;;;;18.25;17.25;;;;;18.08;50.09;101389.00;6190617;23;45061;-59
2023/06/02 01:24:14;;;;;;;;;10.75;9.75;;;;;18.01;50.14;101379.06;6190181;22;45299;-59
2023/06/02 01:26:40;;;;;;;;;11.50;11.50;;;;;17.99;49.91;101399.78;6190397;23;45033;-60
2023/06/02 01:29:05;;;;;;;;;11.75;11.75;;;;;17.96;49.84;101397.06;6189830;22;44858;-61
2023/06/02 01:31:36;;;;;;;;;12.75;9.75;;;;;17.83;49.94;101386.13;6189503;23;45184;-59
2023/06/02 01:34:08;;;;;;;;;12.00;11.00;;;;;17.85;50.90;101397.88;6189672;22;45645;-61
2023/06/02 01:36:37;;;;;;;;;15.50;12.75;;;;;17.85;50.32;101399.63;6190547;22;44944;-61
2023/06/02 01:39:05;;;;;;;;;17.00;14.75;;;;;17.83;50.47;101393.31;6189847;22;45143;-61
2023/06/02 01:41:34;;;;;;;;;17.50;14.00;;;;;17.73;50.69;101400.47;6189932;22;45039;-60
2023/06/02 01:44:02;;;;;;;;;9.00;9.00;;;;;17.72;50.60;101393.28;6191176;22;47692;-60
2023/06/02 01:46:28;;;;;;;;;12.75;10.25;;;;;17.69;50.69;101395.94;6190564;22;45127;-59
2023/06/02 01:48:54;;;;;;;;;14.00;12.00;;;;;17.71;50.25;101402.25;6188170;23;45289;-61
2023/06/02 01:51:19;;;;;;;;;16.25;13.00;;;;;17.68;50.35;101394.13;6191037;23;44979;-60
2023/06/02 01:53:45;;;;;;;;;14.00;10.75;;;;;17.67;50.37;101395.03;6188599;23;45838;-60
2023/06/02 01:56:10;;;;;;;;;10.00;10.00;;;;;17.72;50.69;101390.56;6190768;22;45070;-59
2023/06/02 01:58:36;;;;;;;;;18.25;14.50;;;;;17.71;49.99;101386.03;6190560;22;45007;-59
2023/06/02 02:01:02;;;;;;;;;12.25;11.50;;;;;17.73;50.08;101380.66;6188684;23;44985;-60
2023/06/02 02:03:29;;;;;;;;;17.00;12.25;;;;;17.70;50.20;101386.91;6189628;22;45692;-61
2023/06/02 02:05:54;;;;;;;;;10.75;10.75;;;;;17.67;50.49;101381.53;6191011;22;44881;-59
2023/06/02 02:08:20;;;;;;;;;13.25;11.50;;;;;17.69;50.21;101398.66;6190139;22;45230;-61
2023/06/02 02:10:45;;;;;;;;;16.50;12.25;;;;;17.64;50.00;101385.09;6190577;23;45017;-59
2023/06/02 02:13:10;;;;;;;;;12.50;12.00;;;;;17.68;50.18;101394.13;6191093;23;45070;-62
2023/06/02 02:15:36;;;;;;;;;15.50;15.00;;;;;17.66;49.73;101398.63;6190714;22;44885;-61
2023/06/02 02:18:02;;;;;;;;;11.75;11.75;;;;;17.60;50.16;101396.75;6190711;22;45040;-61
2023/06/02 02:20:27;;;;;;;;;14.00;13.50;;;;;17.53;50.52;101391.31;6189271;22;45657;-60
2023/06/02 02:22:53;;;;;;;;;16.50;13.25;;;;;17.48;50.23;101413.78;6188693;22;45148;-60
2023/06/02 02:25:18;;;;;;;;;14.50;12.50;;;;;17.44;50.54;101403.84;6188801;22;45327;-60
2023/06/02 02:27:44;;;;;;;;;11.50;10.50;;;;;17.44;50.68;101397.53;6189027;22;45318;-61
2023/06/02 02:30:10;;;;;;;;;19.00;13.25;;;;;17.39;49.96;101402.91;6189315;23;45070;-58
2023/06/02 02:32:38;;;;;;;;;13.50;13.50;;;;;17.37;50.36;101401.06;6188949;23;46422;-59
2023/06/02 02:35:04;;;;;;;;;14.75;14.00;;;;;17.33;50.20;101405.56;6189102;22;45672;-60
2023/06/02 02:37:30;;;;;;;;;12.75;11.50;;;;;17.30;50.67;101398.31;6190137;22;45039;-62
2023/06/02 02:39:56;;;;;;;;;20.00;15.75;;;;;17.18;50.95;101394.63;6190252;22;44950;-58
2023/06/02 02:42:21;;;;;;;;;13.25;11.50;;;;;17.19;50.63;101408.13;6190307;22;45076;-59
2023/06/02 02:44:46;;;;;;;;;20.25;16.50;;;;;17.15;50.68;101418.88;6190271;22;45131;-59
2023/06/02 02:47:12;;;;;;;;;14.75;10.00;;;;;17.00;51.45;101415.13;6190058;22;45157;-60
2023/06/02 02:49:38;;;;;;;;;16.75;15.00;;;;;16.91;51.14;101418.66;6190297;23;44927;-60
2023/06/02 02:52:04;;;;;;;;;10.50;10.25;;;;;16.45;51.42;101347.94;6190205;22;45183;-59
2023/06/02 02:54:29;;;;;;;;;18.50;14.50;;;;;16.82;51.29;101412.19;6190660;22;44928;-60
2023/06/02 02:56:55;;;;;;;;;15.00;14.00;;;;;16.80;51.48;101414.88;6190557;23;45263;-57
2023/06/02 02:59:21;;;;;;;;;17.75;14.00;;;;;16.77;51.59;101418.44;6190526;22;44941;-60
2023/06/02 03:01:47;;;;;;;;;20.75;16.25;;;;;16.73;51.88;101418.41;6189639;22;45488;-58
2023/06/02 03:04:21;;;;;;;;;16.75;13.50;;;;;16.70;51.79;101426.47;6189489;23;45096;-60
2023/06/02 03:06:49;;;;;;;;;18.25;14.50;;;;;16.69;51.89;101421.94;6190453;22;45199;-59
2023/06/02 03:09:15;;;;;;;;;18.50;16.25;;;;;16.58;51.53;101419.09;6190539;22;44912;-60
2023/06/02 03:11:41;;;;;;;;;16.00;14.00;;;;;16.57;51.80;101428.09;6189959;22;45099;-60
2023/06/02 03:14:07;;;;;;;;;16.00;11.75;;;;;16.57;51.66;101415.50;6188977;22;45141;-61
2023/06/02 03:16:34;;;;;;;;;10.50;10.50;;;;;16.64;51.53;101427.28;6189735;22;45102;-61
2023/06/02 03:19:00;;;;;;;;;21.75;16.25;;;;;16.61;51.81;101415.53;6191124;22;44846;-61
2023/06/02 03:21:26;;;;;;;;;15.75;12.00;;;;;16.57;51.54;101403.81;6189872;22;46025;-61
2023/06/02 03:23:53;;;;;;;;;16.00;11.50;;;;;16.68;51.39;101421.03;6190026;22;44892;-60
2023/06/02 03:26:26;;;;;;;;;14.50;13.25;;;;;16.65;51.22;101430.91;6190935;22;45038;-61
2023/06/02 03:28:52;;;;;;;;;17.00;13.00;;;;;16.58;51.76;101425.41;6189422;22;44880;-61
2023/06/02 03:31:18;;;;;;;;;15.75;14.50;;;;;16.55;51.37;101430.78;6189716;22;44988;-60
2023/06/02 03:33:43;;;;;;;;;17.50;14.25;;;;;16.55;51.32;101441.56;6190825;22;45131;-60
2023/06/02 03:36:09;;;;;;;;;17.25;16.50;;;;;16.49;51.69;101432.47;6191881;22;44972;-61
2023/06/02 03:38:34;;;;;;;;;17.00;15.00;;;;;16.41;52.20;101421.59;6190824;22;44926;-59
2023/06/02 03:41:00;;;;;;;;;19.50;17.75;;;;;16.47;51.61;101437.84;6190753;22;45690;-61
2023/06/02 03:43:25;;;;;;;;;18.00;15.50;;;;;16.44;51.88;101427.03;6190524;23;45131;-60
2023/06/02 03:45:50;;;;;;;;;22.00;19.25;;;;;16.38;51.99;101416.16;6189981;22;58469;-60
2023/06/02 03:48:16;;;;;;;;;21.50;17.25;;;;;16.42;51.73;101420.72;6191124;23;45369;-60
2023/06/02 03:50:42;;;;;;;;;14.00;14.00;;;;;16.37;52.11;101409.84;6187903;22;45551;-58
2023/06/02 03:53:07;;;;;;;;;28.25;26.50;;;;;16.33;52.14;101420.56;6189829;23;45004;-59
2023/06/02 03:55:32;;;;;;;;;22.00;17.50;;;;;16.29;51.94;101429.53;6190415;22;45030;-60
2023/06/02 03:57:58;;;;;;;;;21.50;15.75;;;;;16.30;52.36;101421.47;6191111;23;45060;-60
2023/06/02 04:00:23;;;;;;;;;18.50;12.75;;;;;16.32;51.84;101427.78;6190966;22;45027;-61
2023/06/02 04:02:49;;;;;;;;;24.50;18.75;;;;;16.32;52.18;101434.97;6190952;22;45054;-61
2023/06/02 04:05:15;;;;;;;;;16.50;15.00;;;;;16.14;52.04;101419.44;6193087;22;45179;-60
2023/06/02 04:07:41;;;;;;;;;16.50;14.75;;;;;16.21;51.92;101437.50;6191943;22;44970;-59
2023/06/02 04:10:06;;;;;;;;;17.50;15.00;;;;;16.23;51.96;101433.03;6191159;22;45539;-59
2023/06/02 04:12:32;;;;;;;;;22.50;18.25;;;;;16.29;52.26;101433.13;6192088;22;45357;-60
2023/06/02 04:14:58;;;;;;;;;21.25;17.75;;;;;16.28;51.86;101436.69;6192740;22;45076;-60
2023/06/02 04:17:25;;;;;;;;;18.25;16.75;;;;;16.30;51.97;101437.63;6192096;22;45023;-61
2023/06/02 04:19:51;;;;;;;;;19.25;15.25;;;;;16.30;51.84;101434.94;6192246;22;45482;-61
2023/06/02 04:22:16;;;;;;;;;16.00;15.50;;;;;16.33;51.64;101440.38;6191745;22;45036;-59
2023/06/02 04:24:42;;;;;;;;;18.50;17.00;;;;;16.32;51.67;101418.78;6190806;23;45071;-59
2023/06/02 04:27:07;;;;;;;;;25.00;22.25;;;;;16.43;51.61;101433.28;6191340;22;44957;-61
2023/06/02 04:29:33;;;;;;;;;26.50;21.50;;;;;16.29;51.93;101426.81;6190266;22;44925;-60
2023/06/02 04:31:58;;;;;;;;;22.75;17.75;;;;;16.36;51.31;101436.81;6191177;22;45219;-59
2023/06/02 04:34:24;;;;;;;;;18.75;16.25;;;;;16.33;51.67;101431.38;6192526;22;45118;-60
2023/06/02 04:36:50;;;;;;;;;28.25;25.25;;;;;16.27;51.78;101429.50;6191870;22;45052;-59
2023/06/02 04:39:15;;;;;;;;;29.75;20.25;;;;;16.26;51.87;101435.75;6192462;23;46354;-60
2023/06/02 04:41:41;;;;;;;;;17.25;17.25;;;;;16.31;51.50;101434.03;6190763;23;45014;-60
2023/06/02 04:44:08;;;;;;;;;19.75;17.75;;;;;16.25;51.92;101419.56;6192691;22;45373;-60
2023/06/02 04:46:34;;;;;;;;;25.50;21.75;;;;;16.37;51.43;101438.63;6193193;22;45162;-59
2023/06/02 04:48:59;;;;;;;;;23.25;19.75;;;;;16.29;51.55;101432.22;6191747;22;44926;-59
2023/06/02 04:51:28;;;;;;;;;23.25;20.00;;;;;16.27;51.25;101418.72;6190749;22;44861;-60
2023/06/02 04:53:54;;;;;;;;;16.25;16.00;;;;;16.42;51.13;101444.09;6191956;22;45229;-59
2023/06/02 04:56:19;;;;;;;;;23.25;19.75;;;;;16.49;50.79;101457.66;6191395;23;45127;-59
2023/06/02 04:58:44;;;;;;;;;29.50;22.75;;;;;16.53;51.25;101459.53;6191818;22;45239;-61
2023/06/02 05:01:10;;;;;;;;;26.25;21.75;;;;;16.56;50.95;101455.94;6191141;23;44993;-61
2023/06/02 05:03:35;;;;;;;;;20.25;14.50;;;;;16.44;50.38;101437.81;6191553;22;45483;-61
2023/06/02 05:06:02;;;;;;;;;31.50;23.25;;;;;16.55;50.52;101462.25;6191592;23;45096;-60
2023/06/02 05:08:27;;;;;;;;;25.75;23.00;;;;;16.58;50.43;101464.94;6191091;22;45757;-61
2023/06/02 05:10:52;;;;;;;;;13.50;13.25;;;;;16.61;50.42;101461.41;6191014;23;45023;-60
2023/06/02 05:13:18;;;;;;;;;20.25;18.25;;;;;16.71;50.13;101463.31;6191466;23;58895;-61
2023/06/02 05:15:45;;;;;;;;;28.00;24.00;;;;;16.71;49.70;101457.94;6190487;22;45287;-60
2023/06/02 05:18:14;;;;;;;;;24.75;19.50;;;;;16.71;50.29;101458.84;6189681;22;45633;-60
2023/06/02 05:20:40;;;;;;;;;22.50;18.50;;;;;16.76;49.90;101467.91;6190666;23;45109;-61
2023/06/02 05:23:05;;;;;;;;;23.75;19.50;;;;;16.79;49.50;101467.03;6192112;22;45115;-60
2023/06/02 05:25:31;;;;;;;;;30.25;22.25;;;;;16.73;49.70;101462.47;6191599;22;45026;-61
2023/06/02 05:27:56;;;;;;;;;25.50;21.25;;;;;16.66;50.30;101462.38;6190968;23;57145;-61
2023/06/02 05:30:21;;;;;;;;;19.75;18.25;;;;;16.73;50.10;101454.38;6190542;22;45033;-61
2023/06/02 05:32:47;;;;;;;;;27.50;26.00;;;;;16.74;50.05;101453.47;6191430;22;45125;-61
2023/06/02 05:35:12;;;;;;;;;24.25;19.00;;;;;16.74;49.75;101452.56;6189778;22;45242;-62
2023/06/02 05:37:37;;;;;;;;;21.00;20.50;;;;;16.77;49.51;101448.13;6190855;23;45440;-61
2023/06/02 05:40:03;;;;;;;;;17.00;16.00;;;;;16.80;49.37;101449.06;6190165;23;46659;-61
2023/06/02 05:42:28;;;;;;;;;22.75;19.50;;;;;16.81;49.06;101443.66;6191538;23;44935;-65
2023/06/02 05:44:54;;;;;;;;;20.25;19.75;;;;;16.84;49.37;101453.59;6192666;22;45335;-59
2023/06/02 05:47:19;;;;;;;;;30.25;30.00;;;;;16.91;49.10;101459.13;6190867;22;45087;-61
2023/06/02 05:49:44;;;;;;;;;27.50;20.25;;;;;16.93;48.77;101457.34;6186997;22;50750;-61
2023/06/02 05:52:10;;;;;;;;;31.25;25.00;;;;;16.94;48.49;101440.28;6191173;22;44880;-60
2023/06/02 05:54:35;;;;;;;;;30.00;25.00;;;;;16.69;48.41;101393.16;6190947;23;45075;-59
2023/06/02 05:57:01;;;;;;;;;31.25;25.75;;;;;17.04;48.01;101453.84;6188092;23;64551;-61
2023/06/02 05:59:27;;;;;;;;;31.25;20.00;;;;;17.03;48.68;101439.47;6190380;22;45083;-61
2023/06/02 06:01:52;;;;;;;;;24.50;21.50;;;;;17.04;48.68;101454.78;6189411;22;44925;-62
2023/06/02 06:04:17;;;;;;;;;29.25;24.25;;;;;17.14;48.34;101453.06;6190294;22;44900;-61
2023/06/02 06:06:43;;;;;;;;;30.75;23.25;;;;;17.19;47.83;101447.72;6188330;22;45195;-61
2023/06/02 06:09:08;;;;;;;;;27.25;24.75;;;;;17.23;47.83;101446.88;6186304;23;45111;-59
2023/06/02 06:11:34;;;;;;;;;26.75;22.75;;;;;17.26;48.12;101453.19;6181899;23;45332;-60
2023/06/02 06:14:00;;;;;;;;;30.75;28.50;;;;;17.34;47.56;101458.69;6185934;22;45286;-61
2023/06/02 06:16:27;;;;;;;;;29.50;28.00;;;;;17.42;47.77;101458.75;6189341;22;45361;-64
2023/06/02 06:18:52;;;;;;;;;37.00;28.75;;;;;17.48;47.38;101465.09;6188488;22;45121;-61
2023/06/02 06:21:18;;;;;;;;;29.75;25.00;;;;;17.55;47.21;101457.06;6187703;22;44999;-61
2023/06/02 06:23:43;;;;;;;;;41.75;30.50;;;;;17.63;46.82;101464.34;6188605;23;45429;-62
2023/06/02 06:26:08;;;;;;;;;26.50;24.00;;;;;17.67;46.89;101463.50;6189692;23;45354;-60
2023/06/02 06:28:34;;;;;;;;;33.50;26.25;;;;;17.60;46.87;101447.19;6187672;23;45246;-60
2023/06/02 06:31:00;;;;;;;;;34.50;32.00;;;;;17.71;46.70;101461.72;6188667;22;45072;-61
2023/06/02 06:33:25;;;;;;;;;31.75;27.50;;;;;17.73;46.58;101450.91;6189179;22;45001;-60
2023/06/02 06:35:51;;;;;;;;;22.75;22.25;;;;;17.75;46.71;101458.16;6188556;23;45576;-60
2023/06/02 06:38:16;;;;;;;;;25.00;23.00;;;;;17.81;46.27;101452.78;6189339;23;45149;-61
2023/06/02 06:40:43;;;;;;;;;23.75;21.50;;;;;17.83;46.02;101458.19;6187841;22;44993;-60
2023/06/02 06:43:08;;;;;;;;;26.50;21.50;;;;;17.89;46.07;101466.41;6186814;23;45586;-59
2023/06/02 06:45:34;;;;;;;;;21.25;19.00;;;;;17.92;45.87;101469.13;6187410;22;45396;-61
2023/06/02 06:47:59;;;;;;;;;22.75;22.00;;;;;17.94;45.90;101471.84;6187919;22;45247;-59
2023/06/02 06:50:24;;;;;;;;;23.25;21.25;;;;;17.84;46.19;101458.22;6189410;22;45219;-60
2023/06/02 06:52:50;;;;;;;;;42.00;26.00;;;;;17.91;45.83;101464.59;6190304;23;45037;-61
2023/06/02 06:55:15;;;;;;;;;33.50;29.25;;;;;17.76;45.82;101467.16;6188963;23;45813;-61
2023/06/02 06:57:41;;;;;;;;;28.25;24.75;;;;;17.72;45.83;101462.59;6189629;22;45373;-60
2023/06/02 07:00:07;;;;;;;;;33.75;25.50;;;;;17.70;46.18;101468.00;6189203;22;44886;-60
2023/06/02 07:02:32;;;;;;;;;25.75;24.75;;;;;17.71;46.06;101468.94;6187377;23;45070;-60
2023/06/02 07:04:58;;;;;;;;;27.00;23.25;;;;;17.82;45.93;101472.63;6187681;23;45603;-64
2023/06/02 07:07:23;;;;;;;;;23.75;21.50;;;;;17.91;45.04;101469.13;6188765;23;44945;-60
2023/06/02 07:09:49;;;;;;;;;28.25;24.25;;;;;17.96;45.02;101461.94;6190870;23;44938;-58
2023/06/02 07:12:14;;;;;;;;;24.75;20.75;;;;;17.99;45.03;101453.88;6190592;22;44807;-61
2023/06/02 07:14:40;;;;;;;;;27.75;21.00;;;;;18.19;44.46;101462.09;6190155;23;44870;-61
2023/06/02 07:17:05;;;;;;;;;29.50;22.75;;;;;18.18;44.63;101457.56;6188887;22;44944;-60
2023/06/02 07:19:30;;;;;;;;;27.50;24.00;;;;;18.27;43.45;101467.56;6188518;22;44957;-60
2023/06/02 07:21:56;;;;;;;;;23.25;19.50;;;;;18.32;43.96;101466.69;6189151;23;44976;-61
2023/06/02 07:24:21;;;;;;;;;22.25;20.00;;;;;18.36;43.70;101468.53;6190716;22;49557;-60
2023/06/02 07:26:46;;;;;;;;;23.50;21.50;;;;;18.30;43.73;101465.78;6190868;22;45097;-61
2023/06/02 07:29:12;;;;;;;;;23.75;20.25;;;;;18.31;44.05;101462.16;6190428;22;45159;-61
2023/06/02 07:31:37;;;;;;;;;22.25;19.75;;;;;18.18;44.37;101450.38;6190125;22;44976;-58
2023/06/02 07:34:03;;;;;;;;;21.50;19.50;;;;;18.29;43.97;101458.56;6189723;22;44980;-60
2023/06/02 07:36:28;;;;;;;;;20.25;17.00;;;;;18.31;44.13;101445.03;6191170;22;44944;-60
2023/06/02 07:38:54;;;;;;;;;23.00;13.25;;;;;18.23;44.04;101443.22;6191077;22;45149;-60
2023/06/02 07:41:20;;;;;;;;;17.50;13.50;;;;;18.27;44.02;101446.81;6193562;22;45214;-59
2023/06/02 07:43:46;;;;;;;;;16.75;16.25;;;;;18.29;43.79;101460.38;6192037;22;45947;-60
2023/06/02 07:46:11;;;;;;;;;16.75;14.00;;;;;18.28;43.44;101458.53;6190552;22;44968;-60
2023/06/02 07:48:36;;;;;;;;;19.50;15.50;;;;;18.26;43.63;101449.53;6190890;23;45059;-62
2023/06/02 07:51:02;;;;;;;;;25.00;20.25;;;;;18.32;43.59;101465.78;6191172;22;45208;-59
2023/06/02 07:53:29;;;;;;;;;15.50;14.50;;;;;18.34;43.55;101455.88;6190656;22;45920;-59
2023/06/02 07:55:54;;;;;;;;;19.00;15.50;;;;;18.28;43.48;101461.25;6191682;22;44902;-59
2023/06/02 07:58:20;;;;;;;;;13.00;12.00;;;;;18.24;43.53;101455.81;6191744;22;44906;-61
2023/06/02 08:00:45;;;;;;;;;17.50;11.75;;;;;18.32;43.85;101465.78;6191831;22;45067;-60
2023/06/02 08:03:10;;;;;;;;;12.75;12.75;;;;;18.30;43.59;101464.88;6187818;22;46077;-59
2023/06/02 08:05:36;;;;;;;;;19.50;15.25;;;;;18.18;44.09;101469.31;6190010;22;56554;-62
2023/06/02 08:08:02;;;;;;;;;23.50;17.00;;;;;18.27;43.62;101464.88;6191434;22;44965;-61
2023/06/02 08:10:28;;;;;;;;;14.25;12.50;;;;;18.36;43.95;101463.13;6191561;22;45414;-62
2023/06/02 08:12:53;;;;;;;;;16.50;14.00;;;;;18.50;43.36;101456.88;6187463;22;45819;-60
2023/06/02 08:15:19;;;;;;;;;20.50;18.50;;;;;18.58;43.34;101452.41;6185209;23;60038;-61
2023/06/02 08:17:45;;;;;;;;;17.25;14.00;;;;;18.70;42.91;101456.97;6191276;22;45144;-60
2023/06/02 08:20:10;;;;;;;;;12.25;10.25;;;;;18.82;42.98;101457.00;6190017;23;45225;-61
2023/06/02 08:22:36;;;;;;;;;13.75;11.50;;;;;18.98;42.43;101458.00;6189829;23;45518;-60
2023/06/02 08:25:03;;;;;;;;;14.00;10.25;;;;;19.08;42.33;101457.13;6188739;23;45044;-62
2023/06/02 08:27:28;;;;;;;;;13.50;11.25;;;;;19.25;41.44;101451.72;6191393;22;45145;-60
2023/06/02 08:29:56;;;;;;;;;11.25;9.25;;;;;19.36;41.67;101454.47;6191454;22;44818;-61
2023/06/02 08:32:24;;;;;;;;;18.25;15.50;;;;;19.45;41.53;101451.78;6188369;23;47790;-61
2023/06/02 08:34:50;;;;;;;;;17.00;15.50;;;;;19.56;41.28;101451.78;6189945;22;45090;-60
2023/06/02 08:37:20;;;;;;;;;15.75;13.00;;;;;19.67;40.91;101449.09;6190877;22;45330;-61
2023/06/02 08:39:47;;;;;;;;;24.00;20.25;;;;;19.74;40.74;101448.16;6185385;22;45243;-59
2023/06/02 08:42:13;;;;;;;;;35.00;32.25;;;;;19.79;40.64;101437.34;6175899;23;46162;-60
2023/06/02 08:44:41;;;;;;;;;18.25;12.75;;;;;19.83;40.44;101450.91;6179022;22;45318;-65
2023/06/02 08:47:12;;;;;;;;;23.50;20.75;;;;;19.87;40.40;101439.16;6177158;23;45301;-60
2023/06/02 08:49:42;;;;;;;;;17.75;16.25;;;;;20.01;40.13;101439.16;6178611;22;45327;-62
2023/06/02 08:52:15;;;;;;;;;19.25;16.00;;;;;20.07;39.69;101435.50;6178636;22;46461;-60
2023/06/02 08:54:40;;;;;;;;;22.25;18.75;;;;;20.12;39.91;101438.22;6176824;22;45291;-60
2023/06/02 08:57:07;;;;;;;;;20.25;17.50;;;;;20.09;39.67;101435.50;6176824;22;45357;-61
2023/06/02 08:59:33;;;;;;;;;15.00;15.00;;;;;20.04;39.43;101430.09;6177623;22;45318;-60
2023/06/02 09:02:00;;;;;;;;;17.25;13.75;;;;;20.13;39.75;101431.88;6178228;22;45712;-61
2023/06/02 09:04:27;;;;;;;;;23.00;20.50;;;;;20.22;39.67;101426.44;6178719;22;45275;-60
2023/06/02 09:07:11;;;;;;;;;31.25;25.25;;;;;20.34;39.16;101429.13;6179066;22;45328;-61
2023/06/02 09:09:41;;;;;;;;;23.50;19.50;;;;;20.42;39.33;101432.69;6179238;22;45464;-61
2023/06/02 09:12:08;;;;;;;;;27.75;24.75;;;;;20.47;39.07;101438.09;6177432;22;46400;-60
2023/06/02 09:14:34;;;;;;;;;27.00;24.00;;;;;20.39;39.16;101408.28;6178264;22;45309;-60
2023/06/02 09:17:00;;;;;;;;;25.75;21.00;;;;;20.53;38.73;101434.50;6178772;22;45294;-61
2023/06/02 09:19:25;;;;;;;;;22.25;21.25;;;;;20.61;38.56;101433.53;6179180;22;45415;-61
2023/06/02 09:21:51;;;;;;;;;16.25;16.00;;;;;20.68;38.84;101434.44;6178233;22;46107;-60
2023/06/02 09:24:32;;;;;;;;;21.25;18.50;;;;;20.69;38.93;101428.13;6178937;23;45295;-61
2023/06/02 09:26:58;;;;;;;;;25.25;21.00;;;;;20.76;38.69;101435.31;6177836;22;45247;-59
2023/06/02 09:29:24;;;;;;;;;20.50;18.25;;;;;20.79;38.62;101424.44;6201957;22;45399;-62
2023/06/02 09:31:55;;;;;;;;;21.50;20.00;;;;;20.73;38.38;101427.19;6176262;22;46075;-61
2023/06/02 09:34:22;;;;;;;;;14.50;14.00;;;;;20.88;38.39;101434.34;6179455;22;45324;-61
2023/06/02 09:36:49;;;;;;;;;24.75;16.50;;;;;20.95;38.45;101428.00;6179113;22;45307;-61
2023/06/02 09:39:30;;;;;;;;;19.50;15.25;;;;;21.01;37.78;101431.56;6177943;22;45465;-61
2023/06/02 09:41:56;;;;;;;;;18.75;14.50;;;;;21.07;37.96;101420.66;6178445;22;46346;-61
2023/06/02 09:44:23;;;;;;;;;13.75;13.75;;;;;21.08;37.87;101415.19;6178002;22;45203;-60
2023/06/02 09:46:48;;;;;;;;;16.33;14.00;;;;;21.08;37.53;101431.50;6178768;23;45471;-60
2023/06/02 09:49:13;;;;;;;;;14.25;14.25;;;;;21.12;37.54;101419.72;6176468;22;50103;-60
2023/06/02 09:51:39;;;;;;;;;23.75;17.25;;;;;21.11;37.31;101409.75;6179145;22;46040;-61
2023/06/02 09:54:06;;;;;;;;;15.25;13.25;;;;;21.19;37.05;101412.44;6178851;23;45400;-60
2023/06/02 09:56:34;;;;;;;;;14.00;13.75;;;;;21.19;37.42;101416.97;6177984;22;45269;-61
2023/06/02 09:59:00;;;;;;;;;17.75;17.75;;;;;21.20;37.49;101422.41;6179121;23;45395;-61
2023/06/02 10:01:26;;;;;;;;;14.00;12.25;;;;;21.19;37.66;101419.69;6174056;23;47202;-62
2023/06/02 10:03:51;;;;;;;;;14.50;12.25;;;;;21.18;37.50;101416.03;6177575;22;45385;-61
2023/06/02 10:07:06;;;;;;;;;18.67;15.00;;;;;21.19;37.59;101423.31;6179636;22;45265;-61
2023/06/02 10:09:43;;;;;;;;;13.50;12.25;;;;;21.29;37.94;101424.13;6153300;23;44829;-61
2023/06/02 10:12:36;;;;;;;;;17.25;13.00;;;;;21.33;37.44;101420.47;6178077;23;47133;-61
2023/06/02 10:15:12;;;;;;;;;20.00;16.00;;;;;21.38;37.47;101418.63;6178938;22;45204;-61
2023/06/02 10:17:48;;;;;;;;;18.25;15.50;;;;;21.38;37.04;101415.91;6176323;23;45243;-61
2023/06/02 10:20:24;;;;;;;;;16.00;15.67;;;;;21.29;37.07;101416.88;6178929;22;45351;-61
2023/06/02 10:23:17;;;;;;;;;16.75;13.00;;;;;21.28;37.20;101411.44;6176802;23;48873;-62
2023/06/02 10:26:01;;;;;;;;;22.50;20.00;;;;;21.29;37.61;101413.28;6177676;23;45365;-62
2023/06/02 10:28:29;;;;;;;;;23.00;18.25;;;;;21.26;37.72;101399.69;6178765;23;45390;-61
2023/06/02 10:31:06;;;;;;;;;23.75;19.50;;;;;21.23;37.43;101410.59;6177059;23;45493;-61
2023/06/02 10:33:49;;;;;;;;;23.75;19.50;;;;;21.10;37.72;101410.69;6177759;22;46000;-62
2023/06/02 10:36:17;;;;;;;;;16.75;14.50;;;;;21.02;37.58;101382.66;6175295;23;45433;-62
2023/06/02 10:38:45;;;;;;;;;23.75;16.00;;;;;21.20;37.88;101402.44;6177774;22;45299;-60
2023/06/02 10:41:12;;;;;;;;;30.75;22.00;;;;;21.22;37.77;101398.81;6178554;23;45477;-63
2023/06/02 10:43:37;;;;;;;;;19.50;17.50;;;;;21.27;38.01;101404.22;6203180;22;47156;-61
2023/06/02 10:46:35;;;;;;;;;14.50;14.50;;;;;21.26;38.11;101402.41;6177582;23;45173;-62
2023/06/02 10:49:00;;;;;;;;;22.25;18.25;;;;;21.31;38.15;101411.44;6112480;23;45387;-61
2023/06/02 10:52:07;;;;;;;;;22.00;19.75;;;;;21.35;38.24;101395.09;6179721;23;45222;-62
2023/06/02 10:54:33;;;;;;;;;24.25;19.75;;;;;21.42;38.25;101401.38;6179214;23;47450;-62
2023/06/02 10:56:59;;;;;;;;;19.00;18.25;;;;;21.43;37.88;101405.91;6179779;22;45377;-62
2023/06/02 10:59:31;;;;;;;;;16.50;14.25;;;;;21.42;38.04;101392.34;6181206;22;45445;-63
2023/06/02 11:01:57;;;;;;;;;20.50;18.25;;;;;21.43;37.92;101408.63;6178934;22;45776;-61
2023/06/02 11:04:32;;;;;;;;;20.00;18.00;;;;;21.42;37.96;101392.34;6180084;23;46227;-64
2023/06/02 11:07:28;;;;;;;;;21.25;19.75;;;;;21.46;38.02;101389.56;6179992;23;45489;-63
2023/06/02 11:10:04;;;;;;;;;27.00;20.75;;;;;21.48;38.00;101392.28;6178073;23;45418;-62
2023/06/02 11:12:55;;;;;;;;;20.25;17.25;;;;;21.49;38.23;101399.56;6202890;22;45389;-61